sensor_id;sensor_type;location;lat;lon;timestamp;P1;durP1;ratioP1;P2;durP2;ratioP2
8958;SDS011;4514;49.476;8.484;2023-01-09T00:01:57;4.93;;;4.37;;
8958;SDS011;4514;49.476;8.484;2023-01-09T00:04:25;4.43;;;4.03;;
8958;SDS011;4514;49.476;8.484;2023-01-09T00:06:50;4.97;;;4.03;;
8958;SDS011;4514;49.476;8.484;2023-01-09T00:09:22;4.50;;;4.10;;
8958;SDS011;4514;49.476;8.484;2023-01-09T00:11:48;4.20;;;3.80;;
8958;SDS011;4514;49.476;8.484;2023-01-09T00:14:14;4.70;;;3.63;;
8958;SDS011;4514;49.476;8.484;2023-01-09T00:16:42;3.97;;;3.57;;
8958;SDS011;4514;49.476;8.484;2023-01-09T00:19:08;4.33;;;3.93;;
8958;SDS011;4514;49.476;8.484;2023-01-09T00:21:34;4.20;;;3.40;;
8958;SDS011;4514;49.476;8.484;2023-01-09T00:24:02;3.77;;;3.47;;
8958;SDS011;4514;49.476;8.484;2023-01-09T00:26:30;3.63;;;3.33;;
8958;SDS011;4514;49.476;8.484;2023-01-09T00:28:55;3.50;;;3.20;;
8958;SDS011;4514;49.476;8.484;2023-01-09T00:31:22;3.20;;;3.00;;
8958;SDS011;4514;49.476;8.484;2023-01-09T00:36:19;3.57;;;3.27;;
8958;SDS011;4514;49.476;8.484;2023-01-09T00:38:44;3.33;;;3.03;;
8958;SDS011;4514;49.476;8.484;2023-01-09T00:41:10;3.50;;;3.20;;
8958;SDS011;4514;49.476;8.484;2023-01-09T00:43:44;3.60;;;3.30;;
8958;SDS011;4514;49.476;8.484;2023-01-09T00:46:11;3.20;;;2.90;;
8958;SDS011;4514;49.476;8.484;2023-01-09T00:48:37;3.57;;;3.10;;
8958;SDS011;4514;49.476;8.484;2023-01-09T00:51:04;3.37;;;3.13;;
8958;SDS011;4514;49.476;8.484;2023-01-09T00:53:35;4.57;;;3.37;;
8958;SDS011;4514;49.476;8.484;2023-01-09T00:56:03;2.80;;;2.60;;
8958;SDS011;4514;49.476;8.484;2023-01-09T00:58:34;3.10;;;2.80;;
8958;SDS011;4514;49.476;8.484;2023-01-09T01:01:00;3.60;;;3.30;;
8958;SDS011;4514;49.476;8.484;2023-01-09T01:03:26;3.83;;;3.00;;
8958;SDS011;4514;49.476;8.484;2023-01-09T01:05:51;2.87;;;2.67;;
8958;SDS011;4514;49.476;8.484;2023-01-09T01:08:36;3.27;;;2.97;;
8958;SDS011;4514;49.476;8.484;2023-01-09T01:11:07;3.57;;;2.97;;
8958;SDS011;4514;49.476;8.484;2023-01-09T01:13:34;2.57;;;2.37;;
8958;SDS011;4514;49.476;8.484;2023-01-09T01:16:06;2.40;;;2.20;;
8958;SDS011;4514;49.476;8.484;2023-01-09T01:18:32;2.03;;;1.90;;
8958;SDS011;4514;49.476;8.484;2023-01-09T01:20:59;3.10;;;2.20;;
8958;SDS011;4514;49.476;8.484;2023-01-09T01:23:24;2.30;;;2.10;;
8958;SDS011;4514;49.476;8.484;2023-01-09T01:25:50;1.90;;;1.80;;
8958;SDS011;4514;49.476;8.484;2023-01-09T01:28:18;2.00;;;1.90;;
8958;SDS011;4514;49.476;8.484;2023-01-09T01:30:46;1.92;;;1.58;;
8958;SDS011;4514;49.476;8.484;2023-01-09T01:33:11;1.40;;;1.30;;
8958;SDS011;4514;49.476;8.484;2023-01-09T01:35:39;1.43;;;1.30;;
8958;SDS011;4514;49.476;8.484;2023-01-09T01:38:04;1.40;;;1.30;;
8958;SDS011;4514;49.476;8.484;2023-01-09T01:40:29;1.40;;;1.30;;
8958;SDS011;4514;49.476;8.484;2023-01-09T01:42:55;1.83;;;1.17;;
8958;SDS011;4514;49.476;8.484;2023-01-09T01:45:25;1.40;;;1.30;;
8958;SDS011;4514;49.476;8.484;2023-01-09T01:47:57;1.93;;;1.20;;
8958;SDS011;4514;49.476;8.484;2023-01-09T01:50:34;1.50;;;1.40;;
8958;SDS011;4514;49.476;8.484;2023-01-09T01:53:07;1.00;;;1.00;;
8958;SDS011;4514;49.476;8.484;2023-01-09T01:55:45;1.37;;;1.20;;
8958;SDS011;4514;49.476;8.484;2023-01-09T01:58:34;1.20;;;1.20;;
8958;SDS011;4514;49.476;8.484;2023-01-09T02:01:03;1.10;;;1.10;;
8958;SDS011;4514;49.476;8.484;2023-01-09T02:03:35;1.10;;;1.00;;
8958;SDS011;4514;49.476;8.484;2023-01-09T02:06:03;2.13;;;1.20;;
8958;SDS011;4514;49.476;8.484;2023-01-09T02:08:29;1.70;;;1.10;;
8958;SDS011;4514;49.476;8.484;2023-01-09T02:10:54;1.40;;;1.30;;
8958;SDS011;4514;49.476;8.484;2023-01-09T02:13:23;0.97;;;0.97;;
8958;SDS011;4514;49.476;8.484;2023-01-09T02:18:30;1.30;;;1.20;;
8958;SDS011;4514;49.476;8.484;2023-01-09T02:29:25;1.50;;;1.40;;
8958;SDS011;4514;49.476;8.484;2023-01-09T02:32:17;1.47;;;1.37;;
8958;SDS011;4514;49.476;8.484;2023-01-09T02:34:55;1.37;;;1.27;;
8958;SDS011;4514;49.476;8.484;2023-01-09T02:40:03;1.50;;;1.40;;
8958;SDS011;4514;49.476;8.484;2023-01-09T02:42:31;1.50;;;1.40;;
8958;SDS011;4514;49.476;8.484;2023-01-09T02:45:00;2.37;;;1.43;;
8958;SDS011;4514;49.476;8.484;2023-01-09T02:50:01;1.50;;;1.40;;
8958;SDS011;4514;49.476;8.484;2023-01-09T03:04:03;1.63;;;1.53;;
8958;SDS011;4514;49.476;8.484;2023-01-09T03:06:37;3.43;;;1.80;;
8958;SDS011;4514;49.476;8.484;2023-01-09T03:09:11;1.57;;;1.43;;
8958;SDS011;4514;49.476;8.484;2023-01-09T03:11:46;2.03;;;1.60;;
8958;SDS011;4514;49.476;8.484;2023-01-09T03:14:20;1.60;;;1.50;;
8958;SDS011;4514;49.476;8.484;2023-01-09T03:16:47;1.60;;;1.50;;
8958;SDS011;4514;49.476;8.484;2023-01-09T03:19:17;1.90;;;1.37;;
8958;SDS011;4514;49.476;8.484;2023-01-09T03:21:45;1.50;;;1.40;;
8958;SDS011;4514;49.476;8.484;2023-01-09T03:24:10;1.23;;;1.13;;
8958;SDS011;4514;49.476;8.484;2023-01-09T03:26:36;1.30;;;1.20;;
8958;SDS011;4514;49.476;8.484;2023-01-09T03:29:01;1.37;;;1.20;;
8958;SDS011;4514;49.476;8.484;2023-01-09T03:31:27;1.73;;;1.40;;
8958;SDS011;4514;49.476;8.484;2023-01-09T03:33:52;1.33;;;1.23;;
8958;SDS011;4514;49.476;8.484;2023-01-09T03:36:20;1.23;;;1.13;;
8958;SDS011;4514;49.476;8.484;2023-01-09T03:38:46;2.35;;;1.25;;
8958;SDS011;4514;49.476;8.484;2023-01-09T03:41:13;2.03;;;1.27;;
8958;SDS011;4514;49.476;8.484;2023-01-09T03:43:41;1.70;;;1.10;;
8958;SDS011;4514;49.476;8.484;2023-01-09T03:46:07;1.70;;;1.13;;
8958;SDS011;4514;49.476;8.484;2023-01-09T03:48:35;1.50;;;1.40;;
8958;SDS011;4514;49.476;8.484;2023-01-09T03:51:00;1.33;;;1.10;;
8958;SDS011;4514;49.476;8.484;2023-01-09T03:53:28;2.10;;;1.07;;
8958;SDS011;4514;49.476;8.484;2023-01-09T03:55:56;1.30;;;0.90;;
8958;SDS011;4514;49.476;8.484;2023-01-09T03:58:24;0.98;;;0.98;;
8958;SDS011;4514;49.476;8.484;2023-01-09T04:00:50;1.27;;;1.10;;
8958;SDS011;4514;49.476;8.484;2023-01-09T04:03:17;0.90;;;0.90;;
8958;SDS011;4514;49.476;8.484;2023-01-09T04:05:44;1.40;;;1.00;;
8958;SDS011;4514;49.476;8.484;2023-01-09T04:08:13;1.00;;;0.80;;
8958;SDS011;4514;49.476;8.484;2023-01-09T04:10:39;0.97;;;0.90;;
8958;SDS011;4514;49.476;8.484;2023-01-09T04:13:07;1.20;;;0.70;;
8958;SDS011;4514;49.476;8.484;2023-01-09T04:15:32;1.30;;;0.80;;
8958;SDS011;4514;49.476;8.484;2023-01-09T04:18:00;1.03;;;0.80;;
8958;SDS011;4514;49.476;8.484;2023-01-09T04:20:26;0.80;;;0.80;;
8958;SDS011;4514;49.476;8.484;2023-01-09T04:22:51;1.20;;;1.10;;
8958;SDS011;4514;49.476;8.484;2023-01-09T04:25:16;1.20;;;1.10;;
8958;SDS011;4514;49.476;8.484;2023-01-09T04:27:42;1.77;;;1.23;;
8958;SDS011;4514;49.476;8.484;2023-01-09T04:30:09;1.53;;;1.00;;
8958;SDS011;4514;49.476;8.484;2023-01-09T04:32:35;1.53;;;0.90;;
8958;SDS011;4514;49.476;8.484;2023-01-09T04:35:00;0.97;;;0.93;;
8958;SDS011;4514;49.476;8.484;2023-01-09T04:37:28;0.80;;;0.80;;
8958;SDS011;4514;49.476;8.484;2023-01-09T04:39:56;0.77;;;0.60;;
8958;SDS011;4514;49.476;8.484;2023-01-09T04:42:22;0.80;;;0.70;;
8958;SDS011;4514;49.476;8.484;2023-01-09T04:44:49;1.15;;;0.75;;
8958;SDS011;4514;49.476;8.484;2023-01-09T04:47:18;1.83;;;1.00;;
8958;SDS011;4514;49.476;8.484;2023-01-09T04:49:47;3.90;;;0.90;;
8958;SDS011;4514;49.476;8.484;2023-01-09T04:52:13;4.33;;;0.90;;
8958;SDS011;4514;49.476;8.484;2023-01-09T04:54:41;1.33;;;0.93;;
8958;SDS011;4514;49.476;8.484;2023-01-09T04:57:06;1.87;;;0.80;;
8958;SDS011;4514;49.476;8.484;2023-01-09T04:59:36;2.40;;;0.93;;
8958;SDS011;4514;49.476;8.484;2023-01-09T05:02:04;0.80;;;0.80;;
8958;SDS011;4514;49.476;8.484;2023-01-09T05:04:29;0.90;;;0.80;;
8958;SDS011;4514;49.476;8.484;2023-01-09T05:06:54;1.90;;;0.80;;
8958;SDS011;4514;49.476;8.484;2023-01-09T05:09:24;0.80;;;0.80;;
8958;SDS011;4514;49.476;8.484;2023-01-09T05:11:52;0.90;;;0.80;;
8958;SDS011;4514;49.476;8.484;2023-01-09T05:14:17;1.10;;;0.90;;
8958;SDS011;4514;49.476;8.484;2023-01-09T05:16:43;2.43;;;0.93;;
8958;SDS011;4514;49.476;8.484;2023-01-09T05:19:08;1.50;;;0.77;;
8958;SDS011;4514;49.476;8.484;2023-01-09T05:21:36;1.10;;;0.67;;
8958;SDS011;4514;49.476;8.484;2023-01-09T05:24:01;1.27;;;0.90;;
8958;SDS011;4514;49.476;8.484;2023-01-09T05:26:27;0.90;;;0.70;;
8958;SDS011;4514;49.476;8.484;2023-01-09T05:28:57;0.93;;;0.70;;
8958;SDS011;4514;49.476;8.484;2023-01-09T05:31:25;1.27;;;0.80;;
8958;SDS011;4514;49.476;8.484;2023-01-09T05:33:51;1.00;;;0.77;;
8958;SDS011;4514;49.476;8.484;2023-01-09T05:36:16;1.07;;;0.80;;
8958;SDS011;4514;49.476;8.484;2023-01-09T05:38:42;1.87;;;0.80;;
8958;SDS011;4514;49.476;8.484;2023-01-09T05:41:07;2.23;;;0.90;;
8958;SDS011;4514;49.476;8.484;2023-01-09T05:43:33;2.63;;;0.67;;
8958;SDS011;4514;49.476;8.484;2023-01-09T05:46:01;4.30;;;1.00;;
8958;SDS011;4514;49.476;8.484;2023-01-09T05:48:26;3.13;;;0.90;;
8958;SDS011;4514;49.476;8.484;2023-01-09T05:50:52;2.60;;;0.90;;
8958;SDS011;4514;49.476;8.484;2023-01-09T05:53:17;2.27;;;1.00;;
8958;SDS011;4514;49.476;8.484;2023-01-09T05:55:45;2.37;;;1.10;;
8958;SDS011;4514;49.476;8.484;2023-01-09T05:58:12;4.23;;;1.17;;
8958;SDS011;4514;49.476;8.484;2023-01-09T06:00:40;1.47;;;1.00;;
8958;SDS011;4514;49.476;8.484;2023-01-09T06:03:05;4.27;;;1.20;;
8958;SDS011;4514;49.476;8.484;2023-01-09T06:05:36;1.20;;;1.00;;
8958;SDS011;4514;49.476;8.484;2023-01-09T06:08:03;2.87;;;0.90;;
8958;SDS011;4514;49.476;8.484;2023-01-09T06:10:33;3.03;;;1.10;;
8958;SDS011;4514;49.476;8.484;2023-01-09T06:13:01;3.07;;;1.20;;
8958;SDS011;4514;49.476;8.484;2023-01-09T06:15:29;1.57;;;1.03;;
8958;SDS011;4514;49.476;8.484;2023-01-09T06:17:57;3.63;;;1.27;;
8958;SDS011;4514;49.476;8.484;2023-01-09T06:20:28;3.30;;;1.10;;
8958;SDS011;4514;49.476;8.484;2023-01-09T06:22:56;6.40;;;1.50;;
8958;SDS011;4514;49.476;8.484;2023-01-09T06:25:21;1.60;;;1.10;;
8958;SDS011;4514;49.476;8.484;2023-01-09T06:27:47;3.17;;;1.13;;
8958;SDS011;4514;49.476;8.484;2023-01-09T06:30:13;3.77;;;1.57;;
8958;SDS011;4514;49.476;8.484;2023-01-09T06:32:40;3.37;;;1.50;;
8958;SDS011;4514;49.476;8.484;2023-01-09T06:35:05;6.13;;;1.70;;
8958;SDS011;4514;49.476;8.484;2023-01-09T06:37:31;5.43;;;1.30;;
8958;SDS011;4514;49.476;8.484;2023-01-09T06:39:57;5.10;;;1.50;;
8958;SDS011;4514;49.476;8.484;2023-01-09T06:42:25;3.67;;;1.47;;
8958;SDS011;4514;49.476;8.484;2023-01-09T06:44:53;2.83;;;1.20;;
8958;SDS011;4514;49.476;8.484;2023-01-09T06:47:23;3.60;;;1.00;;
8958;SDS011;4514;49.476;8.484;2023-01-09T06:49:48;6.17;;;1.17;;
8958;SDS011;4514;49.476;8.484;2023-01-09T06:52:13;5.43;;;1.30;;
8958;SDS011;4514;49.476;8.484;2023-01-09T06:54:39;2.57;;;1.10;;
8958;SDS011;4514;49.476;8.484;2023-01-09T06:57:06;2.77;;;1.30;;
8958;SDS011;4514;49.476;8.484;2023-01-09T06:59:32;4.27;;;1.30;;
8958;SDS011;4514;49.476;8.484;2023-01-09T07:01:57;2.83;;;1.50;;
8958;SDS011;4514;49.476;8.484;2023-01-09T07:04:22;5.20;;;1.50;;
8958;SDS011;4514;49.476;8.484;2023-01-09T07:06:48;5.83;;;1.87;;
8958;SDS011;4514;49.476;8.484;2023-01-09T07:09:13;4.33;;;1.47;;
8958;SDS011;4514;49.476;8.484;2023-01-09T07:11:39;4.67;;;1.97;;
8958;SDS011;4514;49.476;8.484;2023-01-09T07:14:07;3.97;;;1.93;;
8958;SDS011;4514;49.476;8.484;2023-01-09T07:16:32;3.60;;;1.60;;
8958;SDS011;4514;49.476;8.484;2023-01-09T07:19:02;5.00;;;1.60;;
8958;SDS011;4514;49.476;8.484;2023-01-09T07:21:28;2.60;;;1.33;;
8958;SDS011;4514;49.476;8.484;2023-01-09T07:23:53;7.00;;;1.53;;
8958;SDS011;4514;49.476;8.484;2023-01-09T07:26:18;2.77;;;1.40;;
8958;SDS011;4514;49.476;8.484;2023-01-09T07:28:44;4.20;;;1.50;;
8958;SDS011;4514;49.476;8.484;2023-01-09T07:31:09;5.73;;;1.40;;
8958;SDS011;4514;49.476;8.484;2023-01-09T07:33:34;4.17;;;1.40;;
8958;SDS011;4514;49.476;8.484;2023-01-09T07:36:00;6.00;;;1.50;;
8958;SDS011;4514;49.476;8.484;2023-01-09T07:38:25;5.40;;;1.53;;
8958;SDS011;4514;49.476;8.484;2023-01-09T07:40:51;3.87;;;1.60;;
8958;SDS011;4514;49.476;8.484;2023-01-09T07:43:16;4.53;;;1.57;;
8958;SDS011;4514;49.476;8.484;2023-01-09T07:45:41;5.83;;;1.60;;
8958;SDS011;4514;49.476;8.484;2023-01-09T07:48:09;4.50;;;1.40;;
8958;SDS011;4514;49.476;8.484;2023-01-09T07:50:37;4.90;;;1.50;;
8958;SDS011;4514;49.476;8.484;2023-01-09T07:53:02;4.13;;;1.50;;
8958;SDS011;4514;49.476;8.484;2023-01-09T07:55:27;3.40;;;1.90;;
8958;SDS011;4514;49.476;8.484;2023-01-09T07:57:53;6.75;;;1.90;;
8958;SDS011;4514;49.476;8.484;2023-01-09T08:00:20;6.60;;;1.93;;
8958;SDS011;4514;49.476;8.484;2023-01-09T08:02:54;5.60;;;1.60;;
8958;SDS011;4514;49.476;8.484;2023-01-09T08:05:20;6.60;;;2.00;;
8958;SDS011;4514;49.476;8.484;2023-01-09T08:07:45;5.67;;;1.67;;
8958;SDS011;4514;49.476;8.484;2023-01-09T08:10:17;3.37;;;1.43;;
8958;SDS011;4514;49.476;8.484;2023-01-09T08:12:44;5.57;;;1.77;;
8958;SDS011;4514;49.476;8.484;2023-01-09T08:15:12;7.77;;;1.80;;
8958;SDS011;4514;49.476;8.484;2023-01-09T08:17:39;5.00;;;1.50;;
8958;SDS011;4514;49.476;8.484;2023-01-09T08:20:06;6.37;;;1.70;;
8958;SDS011;4514;49.476;8.484;2023-01-09T08:22:31;6.07;;;1.90;;
8958;SDS011;4514;49.476;8.484;2023-01-09T08:24:59;3.43;;;1.40;;
8958;SDS011;4514;49.476;8.484;2023-01-09T08:27:27;8.17;;;1.30;;
8958;SDS011;4514;49.476;8.484;2023-01-09T08:29:52;4.97;;;1.50;;
8958;SDS011;4514;49.476;8.484;2023-01-09T08:32:20;5.67;;;1.70;;
8958;SDS011;4514;49.476;8.484;2023-01-09T08:34:47;5.97;;;1.47;;
8958;SDS011;4514;49.476;8.484;2023-01-09T08:37:13;5.57;;;1.93;;
8958;SDS011;4514;49.476;8.484;2023-01-09T08:39:38;6.37;;;1.73;;
8958;SDS011;4514;49.476;8.484;2023-01-09T08:42:04;5.60;;;1.70;;
8958;SDS011;4514;49.476;8.484;2023-01-09T08:44:50;4.07;;;1.70;;
8958;SDS011;4514;49.476;8.484;2023-01-09T08:47:34;5.75;;;1.75;;
8958;SDS011;4514;49.476;8.484;2023-01-09T08:50:00;3.53;;;1.30;;
8958;SDS011;4514;49.476;8.484;2023-01-09T08:52:27;4.80;;;1.30;;
8958;SDS011;4514;49.476;8.484;2023-01-09T08:54:54;4.97;;;1.43;;
8958;SDS011;4514;49.476;8.484;2023-01-09T08:57:22;3.37;;;1.10;;
8958;SDS011;4514;49.476;8.484;2023-01-09T08:59:55;4.00;;;1.60;;
8958;SDS011;4514;49.476;8.484;2023-01-09T09:02:21;4.53;;;1.57;;
8958;SDS011;4514;49.476;8.484;2023-01-09T09:04:46;3.83;;;1.17;;
8958;SDS011;4514;49.476;8.484;2023-01-09T09:07:12;4.27;;;1.30;;
8958;SDS011;4514;49.476;8.484;2023-01-09T09:09:38;5.10;;;1.30;;
8958;SDS011;4514;49.476;8.484;2023-01-09T09:12:08;7.65;;;1.60;;
8958;SDS011;4514;49.476;8.484;2023-01-09T09:14:33;3.67;;;1.30;;
8958;SDS011;4514;49.476;8.484;2023-01-09T09:17:17;5.47;;;1.30;;
8958;SDS011;4514;49.476;8.484;2023-01-09T09:19:43;4.63;;;1.60;;
8958;SDS011;4514;49.476;8.484;2023-01-09T09:22:08;4.43;;;1.70;;
8958;SDS011;4514;49.476;8.484;2023-01-09T09:24:38;6.50;;;1.37;;
8958;SDS011;4514;49.476;8.484;2023-01-09T09:27:06;3.77;;;1.50;;
8958;SDS011;4514;49.476;8.484;2023-01-09T09:29:31;5.13;;;1.50;;
8958;SDS011;4514;49.476;8.484;2023-01-09T09:32:05;4.73;;;1.40;;
8958;SDS011;4514;49.476;8.484;2023-01-09T09:34:30;3.75;;;1.48;;
8958;SDS011;4514;49.476;8.484;2023-01-09T09:36:56;6.93;;;1.50;;
8958;SDS011;4514;49.476;8.484;2023-01-09T09:39:21;3.03;;;1.20;;
8958;SDS011;4514;49.476;8.484;2023-01-09T09:52:49;4.50;;;1.73;;
8958;SDS011;4514;49.476;8.484;2023-01-09T09:55:17;3.23;;;1.20;;
8958;SDS011;4514;49.476;8.484;2023-01-09T09:57:45;3.78;;;1.40;;
8958;SDS011;4514;49.476;8.484;2023-01-09T10:00:15;3.80;;;1.37;;
8958;SDS011;4514;49.476;8.484;2023-01-09T10:07:50;4.67;;;1.53;;
8958;SDS011;4514;49.476;8.484;2023-01-09T10:10:34;2.30;;;1.10;;
8958;SDS011;4514;49.476;8.484;2023-01-09T10:13:08;6.80;;;1.40;;
8958;SDS011;4514;49.476;8.484;2023-01-09T10:15:57;3.60;;;1.23;;
8958;SDS011;4514;49.476;8.484;2023-01-09T10:21:02;2.13;;;1.03;;
8958;SDS011;4514;49.476;8.484;2023-01-09T10:26:29;3.17;;;1.40;;
8958;SDS011;4514;49.476;8.484;2023-01-09T10:29:19;3.00;;;1.20;;
8958;SDS011;4514;49.476;8.484;2023-01-09T10:32:21;1.90;;;1.30;;
8958;SDS011;4514;49.476;8.484;2023-01-09T10:37:39;3.37;;;1.10;;
8958;SDS011;4514;49.476;8.484;2023-01-09T10:40:18;4.30;;;1.13;;
8958;SDS011;4514;49.476;8.484;2023-01-09T10:42:53;2.73;;;0.90;;
8958;SDS011;4514;49.476;8.484;2023-01-09T10:45:32;3.47;;;1.47;;
8958;SDS011;4514;49.476;8.484;2023-01-09T10:48:17;4.07;;;1.40;;
8958;SDS011;4514;49.476;8.484;2023-01-09T10:50:50;2.90;;;1.10;;
8958;SDS011;4514;49.476;8.484;2023-01-09T10:53:29;2.80;;;1.47;;
8958;SDS011;4514;49.476;8.484;2023-01-09T10:56:46;2.60;;;1.30;;
8958;SDS011;4514;49.476;8.484;2023-01-09T10:58:52;2.90;;;1.20;;
8958;SDS011;4514;49.476;8.484;2023-01-09T11:01:29;3.47;;;1.47;;
8958;SDS011;4514;49.476;8.484;2023-01-09T11:04:01;4.07;;;1.70;;
8958;SDS011;4514;49.476;8.484;2023-01-09T11:06:42;4.67;;;1.43;;
8958;SDS011;4514;49.476;8.484;2023-01-09T11:09:10;3.00;;;1.00;;
8958;SDS011;4514;49.476;8.484;2023-01-09T11:11:37;3.50;;;1.40;;
8958;SDS011;4514;49.476;8.484;2023-01-09T11:14:06;3.83;;;1.20;;
8958;SDS011;4514;49.476;8.484;2023-01-09T11:16:51;3.87;;;1.40;;
8958;SDS011;4514;49.476;8.484;2023-01-09T11:19:18;3.10;;;1.20;;
8958;SDS011;4514;49.476;8.484;2023-01-09T11:21:43;3.27;;;1.20;;
8958;SDS011;4514;49.476;8.484;2023-01-09T11:26:46;2.57;;;1.30;;
8958;SDS011;4514;49.476;8.484;2023-01-09T11:29:22;1.73;;;1.03;;
8958;SDS011;4514;49.476;8.484;2023-01-09T11:31:54;3.27;;;1.30;;
8958;SDS011;4514;49.476;8.484;2023-01-09T11:34:26;3.35;;;1.33;;
8958;SDS011;4514;49.476;8.484;2023-01-09T11:36:53;4.13;;;1.53;;
8958;SDS011;4514;49.476;8.484;2023-01-09T11:39:28;2.43;;;1.10;;
8958;SDS011;4514;49.476;8.484;2023-01-09T11:41:58;2.13;;;1.10;;
8958;SDS011;4514;49.476;8.484;2023-01-09T11:44:32;3.47;;;1.13;;
8958;SDS011;4514;49.476;8.484;2023-01-09T11:46:57;3.50;;;1.40;;
8958;SDS011;4514;49.476;8.484;2023-01-09T11:49:26;1.43;;;0.97;;
8958;SDS011;4514;49.476;8.484;2023-01-09T11:57:18;3.90;;;1.85;;
8958;SDS011;4514;49.476;8.484;2023-01-09T11:59:44;2.70;;;1.20;;
8958;SDS011;4514;49.476;8.484;2023-01-09T12:05:06;2.47;;;1.30;;
8958;SDS011;4514;49.476;8.484;2023-01-09T12:16:12;2.30;;;1.20;;
8958;SDS011;4514;49.476;8.484;2023-01-09T12:19:08;2.60;;;1.38;;
8958;SDS011;4514;49.476;8.484;2023-01-09T12:25:11;2.77;;;1.30;;
8958;SDS011;4514;49.476;8.484;2023-01-09T12:28:01;2.97;;;1.50;;
8958;SDS011;4514;49.476;8.484;2023-01-09T12:30:56;2.57;;;1.60;;
8958;SDS011;4514;49.476;8.484;2023-01-09T12:33:36;4.07;;;1.33;;
8958;SDS011;4514;49.476;8.484;2023-01-09T12:36:08;4.60;;;1.50;;
8958;SDS011;4514;49.476;8.484;2023-01-09T12:38:41;2.07;;;1.23;;
8958;SDS011;4514;49.476;8.484;2023-01-09T12:46:17;2.97;;;1.40;;
8958;SDS011;4514;49.476;8.484;2023-01-09T12:49:00;2.13;;;1.43;;
8958;SDS011;4514;49.476;8.484;2023-01-09T12:51:38;3.40;;;1.20;;
8958;SDS011;4514;49.476;8.484;2023-01-09T12:54:18;2.67;;;1.27;;
8958;SDS011;4514;49.476;8.484;2023-01-09T12:56:50;2.87;;;1.20;;
8958;SDS011;4514;49.476;8.484;2023-01-09T13:02:18;2.27;;;1.03;;
8958;SDS011;4514;49.476;8.484;2023-01-09T13:04:55;1.70;;;1.10;;
8958;SDS011;4514;49.476;8.484;2023-01-09T13:07:26;2.37;;;1.13;;
8958;SDS011;4514;49.476;8.484;2023-01-09T13:12:51;2.10;;;0.80;;
8958;SDS011;4514;49.476;8.484;2023-01-09T13:15:24;1.10;;;0.80;;
8958;SDS011;4514;49.476;8.484;2023-01-09T13:18:41;0.87;;;0.70;;
8958;SDS011;4514;49.476;8.484;2023-01-09T13:20:48;1.03;;;0.60;;
8958;SDS011;4514;49.476;8.484;2023-01-09T13:24:00;0.90;;;0.70;;
8958;SDS011;4514;49.476;8.484;2023-01-09T13:26:42;1.23;;;0.80;;
8958;SDS011;4514;49.476;8.484;2023-01-09T13:29:20;1.53;;;0.83;;
8958;SDS011;4514;49.476;8.484;2023-01-09T13:34:36;2.03;;;1.00;;
8958;SDS011;4514;49.476;8.484;2023-01-09T13:37:04;1.80;;;0.95;;
8958;SDS011;4514;49.476;8.484;2023-01-09T13:39:55;1.47;;;0.70;;
8958;SDS011;4514;49.476;8.484;2023-01-09T13:42:22;1.47;;;0.90;;
8958;SDS011;4514;49.476;8.484;2023-01-09T13:45:27;3.60;;;1.00;;
8958;SDS011;4514;49.476;8.484;2023-01-09T13:50:43;1.10;;;0.90;;
8958;SDS011;4514;49.476;8.484;2023-01-09T13:56:17;1.73;;;0.80;;
8958;SDS011;4514;49.476;8.484;2023-01-09T14:01:02;2.37;;;1.13;;
8958;SDS011;4514;49.476;8.484;2023-01-09T14:03:34;2.47;;;1.00;;
8958;SDS011;4514;49.476;8.484;2023-01-09T14:06:01;2.47;;;1.10;;
8958;SDS011;4514;49.476;8.484;2023-01-09T14:08:29;4.20;;;1.30;;
8958;SDS011;4514;49.476;8.484;2023-01-09T14:10:56;3.67;;;2.60;;
8958;SDS011;4514;49.476;8.484;2023-01-09T14:16:00;2.60;;;1.13;;
8958;SDS011;4514;49.476;8.484;2023-01-09T14:18:29;2.20;;;1.00;;
8958;SDS011;4514;49.476;8.484;2023-01-09T14:21:00;3.67;;;2.10;;
8958;SDS011;4514;49.476;8.484;2023-01-09T14:23:32;2.95;;;1.30;;
8958;SDS011;4514;49.476;8.484;2023-01-09T14:25:58;1.30;;;1.17;;
8958;SDS011;4514;49.476;8.484;2023-01-09T14:28:30;3.40;;;1.50;;
8958;SDS011;4514;49.476;8.484;2023-01-09T14:44:27;2.83;;;1.40;;
8958;SDS011;4514;49.476;8.484;2023-01-09T14:52:32;2.87;;;0.80;;
8958;SDS011;4514;49.476;8.484;2023-01-09T14:55:02;2.43;;;1.17;;
8958;SDS011;4514;49.476;8.484;2023-01-09T14:57:33;3.10;;;1.20;;
8958;SDS011;4514;49.476;8.484;2023-01-09T15:00:03;3.40;;;0.90;;
8958;SDS011;4514;49.476;8.484;2023-01-09T15:02:38;1.20;;;0.80;;
8958;SDS011;4514;49.476;8.484;2023-01-09T15:05:06;2.13;;;1.00;;
8958;SDS011;4514;49.476;8.484;2023-01-09T15:07:36;1.63;;;0.97;;
8958;SDS011;4514;49.476;8.484;2023-01-09T15:10:22;2.30;;;0.90;;
8958;SDS011;4514;49.476;8.484;2023-01-09T15:12:50;1.53;;;0.90;;
8958;SDS011;4514;49.476;8.484;2023-01-09T15:15:22;1.60;;;0.90;;
8958;SDS011;4514;49.476;8.484;2023-01-09T15:17:55;3.93;;;1.40;;
8958;SDS011;4514;49.476;8.484;2023-01-09T15:20:24;2.13;;;1.10;;
8958;SDS011;4514;49.476;8.484;2023-01-09T15:22:54;1.80;;;1.00;;
8958;SDS011;4514;49.476;8.484;2023-01-09T15:27:48;2.33;;;1.10;;
8958;SDS011;4514;49.476;8.484;2023-01-09T15:30:24;3.10;;;1.30;;
8958;SDS011;4514;49.476;8.484;2023-01-09T15:32:53;3.38;;;1.10;;
8958;SDS011;4514;49.476;8.484;2023-01-09T15:35:19;3.33;;;1.43;;
8958;SDS011;4514;49.476;8.484;2023-01-09T15:37:45;3.43;;;1.27;;
8958;SDS011;4514;49.476;8.484;2023-01-09T15:40:21;2.20;;;1.00;;
8958;SDS011;4514;49.476;8.484;2023-01-09T15:42:50;2.57;;;1.30;;
8958;SDS011;4514;49.476;8.484;2023-01-09T15:51:05;3.20;;;1.40;;
8958;SDS011;4514;49.476;8.484;2023-01-09T15:53:38;2.55;;;1.60;;
8958;SDS011;4514;49.476;8.484;2023-01-09T15:58:52;2.30;;;1.20;;
8958;SDS011;4514;49.476;8.484;2023-01-09T16:01:34;3.07;;;1.40;;
8958;SDS011;4514;49.476;8.484;2023-01-09T16:04:14;2.07;;;1.10;;
8958;SDS011;4514;49.476;8.484;2023-01-09T16:06:47;1.33;;;0.90;;
8958;SDS011;4514;49.476;8.484;2023-01-09T16:09:16;1.43;;;0.90;;
8958;SDS011;4514;49.476;8.484;2023-01-09T16:11:51;2.70;;;1.70;;
8958;SDS011;4514;49.476;8.484;2023-01-09T16:14:22;3.70;;;1.40;;
8958;SDS011;4514;49.476;8.484;2023-01-09T16:17:10;2.57;;;1.10;;
8958;SDS011;4514;49.476;8.484;2023-01-09T16:19:49;2.70;;;1.20;;
8958;SDS011;4514;49.476;8.484;2023-01-09T16:24:47;4.30;;;2.00;;
8958;SDS011;4514;49.476;8.484;2023-01-09T16:29:44;4.93;;;1.67;;
8958;SDS011;4514;49.476;8.484;2023-01-09T16:32:16;4.67;;;1.53;;
8958;SDS011;4514;49.476;8.484;2023-01-09T16:35:13;2.50;;;1.30;;
8958;SDS011;4514;49.476;8.484;2023-01-09T16:37:40;3.77;;;1.60;;
8958;SDS011;4514;49.476;8.484;2023-01-09T16:42:45;3.40;;;2.20;;
8958;SDS011;4514;49.476;8.484;2023-01-09T16:48:02;2.87;;;1.37;;
8958;SDS011;4514;49.476;8.484;2023-01-09T16:50:35;4.30;;;1.33;;
8958;SDS011;4514;49.476;8.484;2023-01-09T16:53:00;1.70;;;1.20;;
8958;SDS011;4514;49.476;8.484;2023-01-09T16:55:27;2.47;;;1.43;;
8958;SDS011;4514;49.476;8.484;2023-01-09T16:57:57;3.43;;;1.47;;
8958;SDS011;4514;49.476;8.484;2023-01-09T17:00:22;3.23;;;1.70;;
8958;SDS011;4514;49.476;8.484;2023-01-09T17:02:52;3.67;;;1.53;;
8958;SDS011;4514;49.476;8.484;2023-01-09T17:05:18;3.47;;;1.50;;
8958;SDS011;4514;49.476;8.484;2023-01-09T17:07:43;3.67;;;1.40;;
8958;SDS011;4514;49.476;8.484;2023-01-09T17:10:14;2.50;;;1.40;;
8958;SDS011;4514;49.476;8.484;2023-01-09T17:12:43;2.25;;;1.40;;
8958;SDS011;4514;49.476;8.484;2023-01-09T17:15:09;4.10;;;2.17;;
8958;SDS011;4514;49.476;8.484;2023-01-09T17:17:34;6.03;;;3.70;;
8958;SDS011;4514;49.476;8.484;2023-01-09T17:20:00;3.13;;;1.40;;
8958;SDS011;4514;49.476;8.484;2023-01-09T17:22:25;2.10;;;1.47;;
8958;SDS011;4514;49.476;8.484;2023-01-09T17:24:50;3.77;;;1.10;;
8958;SDS011;4514;49.476;8.484;2023-01-09T17:27:35;2.63;;;1.20;;
8958;SDS011;4514;49.476;8.484;2023-01-09T17:30:22;3.17;;;1.30;;
8958;SDS011;4514;49.476;8.484;2023-01-09T17:32:52;5.33;;;1.73;;
8958;SDS011;4514;49.476;8.484;2023-01-09T17:35:20;3.93;;;1.80;;
8958;SDS011;4514;49.476;8.484;2023-01-09T17:37:47;3.38;;;2.00;;
8958;SDS011;4514;49.476;8.484;2023-01-09T17:40:22;4.17;;;1.73;;
8958;SDS011;4514;49.476;8.484;2023-01-09T17:42:47;4.10;;;1.43;;
8958;SDS011;4514;49.476;8.484;2023-01-09T17:45:13;2.87;;;1.27;;
8958;SDS011;4514;49.476;8.484;2023-01-09T17:47:38;1.33;;;1.00;;
8958;SDS011;4514;49.476;8.484;2023-01-09T17:50:06;0.83;;;0.83;;
8958;SDS011;4514;49.476;8.484;2023-01-09T17:52:34;2.10;;;1.90;;
8958;SDS011;4514;49.476;8.484;2023-01-09T17:55:01;1.20;;;1.10;;